createdAt,value
2018-11-03T00:03:23.885Z,90.40
2018-11-03T00:08:27.392Z,90.40
2018-11-03T00:13:51.937Z,91.60
2018-11-03T00:18:55.512Z,90.20
2018-11-03T00:23:59.479Z,89.00
2018-11-03T00:29:03.020Z,89.20
2018-11-03T00:34:06.854Z,89.50
2018-11-03T00:39:11.500Z,90.00
2018-11-03T00:44:15.042Z,90.10
2018-11-03T00:49:18.529Z,90.00
2018-11-03T00:54:22.138Z,90.00
2018-11-03T00:59:25.660Z,90.00
2018-11-03T01:04:29.170Z,90.00
2018-11-03T01:09:32.673Z,89.90
2018-11-03T01:14:36.289Z,90.00
2018-11-03T01:19:39.987Z,90.10
2018-11-03T01:24:43.590Z,90.30
2018-11-03T01:29:47.352Z,90.30
2018-11-03T01:34:50.932Z,90.50
2018-11-03T01:39:54.492Z,90.50
2018-11-03T01:44:58.018Z,90.60
2018-11-03T01:50:01.551Z,90.70
2018-11-03T01:55:06.044Z,90.80
2018-11-03T02:00:10.666Z,91.00
2018-11-03T02:05:14.167Z,91.00
2018-11-03T02:10:17.767Z,91.00
2018-11-03T02:15:21.396Z,91.00
2018-11-03T02:20:24.963Z,91.10
2018-11-03T02:25:28.472Z,91.00
2018-11-03T02:30:31.951Z,90.90
2018-11-03T02:35:35.529Z,90.90
2018-11-03T02:40:39.082Z,90.80
2018-11-03T02:45:42.649Z,90.80
2018-11-03T02:50:46.120Z,91.00
2018-11-03T02:55:49.901Z,91.00
2018-11-03T03:00:53.350Z,91.30
2018-11-03T03:05:56.963Z,91.20
2018-11-03T03:11:00.433Z,91.60
2018-11-03T03:16:04.462Z,91.70
2018-11-03T03:21:08.189Z,91.80
2018-11-03T03:26:11.660Z,91.80
2018-11-03T03:31:15.111Z,91.80
2018-11-03T03:36:18.667Z,91.80
2018-11-03T03:41:22.219Z,91.50
2018-11-03T03:46:25.937Z,91.40
2018-11-03T03:51:29.490Z,91.50
2018-11-03T03:56:32.966Z,91.50
2018-11-03T04:01:36.417Z,91.40
2018-11-03T04:06:39.867Z,91.50
2018-11-03T04:11:43.364Z,91.50
2018-11-03T04:16:46.873Z,91.40
2018-11-03T04:21:50.379Z,91.10
2018-11-03T04:26:53.864Z,91.30
2018-11-03T04:31:57.281Z,91.50
2018-11-03T04:37:00.730Z,91.70
2018-11-03T04:42:04.516Z,91.50
2018-11-03T04:47:07.993Z,91.30
2018-11-03T04:52:11.463Z,91.30
2018-11-03T04:57:14.916Z,91.40
2018-11-03T05:02:18.444Z,91.10
2018-11-03T05:07:21.917Z,91.00
2018-11-03T05:12:25.414Z,91.60
2018-11-03T05:17:28.976Z,91.50
2018-11-03T05:22:32.648Z,91.60
2018-11-03T05:27:36.132Z,91.50
2018-11-03T05:32:39.847Z,91.60
2018-11-03T05:37:43.257Z,91.50
2018-11-03T05:42:48.797Z,91.60
2018-11-03T05:47:52.311Z,91.50
2018-11-03T05:52:55.829Z,91.70
2018-11-03T05:57:59.483Z,91.70
2018-11-03T06:03:03.213Z,91.70
2018-11-03T06:08:06.727Z,91.70
2018-11-03T06:13:10.334Z,91.50
2018-11-03T06:18:13.813Z,91.40
2018-11-03T06:23:17.523Z,91.70
2018-11-03T06:28:20.984Z,91.60
2018-11-03T06:33:24.674Z,91.80
2018-11-03T06:38:28.392Z,92.00
2018-11-03T06:43:31.980Z,91.80
2018-11-03T06:48:35.752Z,91.90
2018-11-03T06:53:39.345Z,92.30
2018-11-03T06:58:43.125Z,92.10
2018-11-03T07:03:47.795Z,92.10
2018-11-03T07:08:51.695Z,91.90
2018-11-03T07:13:55.284Z,91.90
2018-11-03T07:18:58.844Z,91.90
2018-11-03T07:24:02.333Z,91.80
2018-11-03T07:29:05.972Z,91.80
2018-11-03T07:34:09.504Z,91.90
2018-11-03T07:39:13.093Z,91.60
2018-11-03T07:44:16.546Z,91.60
2018-11-03T07:49:20.213Z,91.60
2018-11-03T07:54:23.699Z,91.40
2018-11-03T07:59:27.628Z,92.40
2018-11-03T08:04:31.218Z,90.50
2018-11-03T08:09:34.707Z,90.50
2018-11-03T08:14:38.199Z,90.10
2018-11-03T08:19:44.033Z,89.10
2018-11-03T08:24:47.532Z,88.50
2018-11-03T08:29:51.054Z,87.70
2018-11-03T08:34:54.523Z,88.30
2018-11-03T08:39:58.396Z,85.90
2018-11-03T08:45:02.030Z,85.80
2018-11-03T08:50:07.919Z,86.10
2018-11-03T08:55:12.788Z,86.10
2018-11-03T09:00:17.093Z,86.00
2018-11-03T09:05:23.556Z,85.60
2018-11-03T09:10:28.066Z,87.20
2018-11-03T09:15:31.700Z,85.40
2018-11-03T09:20:35.282Z,84.60
2018-11-03T09:25:38.841Z,82.90
2018-11-03T09:30:42.350Z,82.60
2018-11-03T09:35:46.161Z,80.10
2018-11-03T09:40:49.914Z,77.00
2018-11-03T09:45:53.346Z,77.10
2018-11-03T09:50:56.878Z,77.70
2018-11-03T09:56:00.530Z,77.20
2018-11-03T10:01:04.089Z,77.90
2018-11-03T10:06:07.573Z,77.10
2018-11-03T10:11:11.103Z,77.40
2018-11-03T10:16:14.851Z,76.00
2018-11-03T10:21:18.521Z,74.70
2018-11-03T10:26:22.353Z,74.30
2018-11-03T10:31:25.870Z,74.40
2018-11-03T10:36:29.307Z,75.70
2018-11-03T10:41:32.893Z,75.10
2018-11-03T10:46:36.933Z,73.00
2018-11-03T10:51:40.636Z,73.20
2018-11-03T10:56:48.771Z,73.90
2018-11-03T11:01:57.825Z,71.70
2018-11-03T11:07:07.058Z,70.60
2018-11-03T11:12:16.004Z,71.60
2018-11-03T11:17:19.736Z,70.00
2018-11-03T11:22:23.392Z,70.30
2018-11-03T11:27:27.162Z,70.30
2018-11-03T11:32:30.657Z,68.30
2018-11-03T11:37:34.267Z,69.80
2018-11-03T11:42:38.034Z,70.40
2018-11-03T11:47:41.547Z,70.30
2018-11-03T11:52:45.178Z,68.60
2018-11-03T11:57:49.178Z,67.90
2018-11-03T12:02:53.053Z,67.60
2018-11-03T12:07:56.651Z,68.10
2018-11-03T12:13:00.232Z,68.10
2018-11-03T12:18:03.734Z,67.30
2018-11-03T12:23:07.398Z,66.60
2018-11-03T12:28:11.072Z,66.00
2018-11-03T12:33:14.926Z,65.20
2018-11-03T12:38:18.479Z,64.30
2018-11-03T12:43:22.012Z,64.50
2018-11-03T12:48:25.615Z,65.70
2018-11-03T12:53:29.176Z,65.20
2018-11-03T12:58:32.736Z,65.00
2018-11-03T13:03:36.242Z,65.50
2018-11-03T13:08:39.797Z,65.00
2018-11-03T13:13:43.266Z,64.60
2018-11-03T13:18:46.735Z,63.80
2018-11-03T13:23:50.298Z,65.10
2018-11-03T13:28:53.804Z,65.10
2018-11-03T13:33:57.350Z,64.60
2018-11-03T13:39:00.930Z,64.50
2018-11-03T13:44:04.912Z,64.10
2018-11-03T13:49:08.511Z,65.10
2018-11-03T13:54:12.056Z,65.30
2018-11-03T13:59:15.757Z,65.50
2018-11-03T14:04:19.220Z,65.30
2018-11-03T14:09:22.856Z,65.40
2018-11-03T14:14:26.474Z,65.20
2018-11-03T14:19:30.321Z,65.70
2018-11-03T14:24:34.186Z,65.90
2018-11-03T14:29:37.931Z,66.30
2018-11-03T14:34:41.878Z,67.30
2018-11-03T14:39:45.361Z,67.10
2018-11-03T14:44:48.947Z,67.20
2018-11-03T14:49:52.493Z,67.50
2018-11-03T14:54:56.038Z,67.70
2018-11-03T14:59:59.680Z,70.00
2018-11-03T15:05:03.326Z,68.20
2018-11-03T15:10:08.601Z,68.00
2018-11-03T15:15:14.360Z,67.50
2018-11-03T15:20:18.079Z,68.40
2018-11-03T15:25:21.660Z,69.10
2018-11-03T15:30:25.315Z,69.20
2018-11-03T15:35:29.127Z,69.50
2018-11-03T15:40:32.775Z,70.20
2018-11-03T15:45:36.292Z,71.00
2018-11-03T15:50:45.594Z,71.30
2018-11-03T15:55:49.177Z,72.00
2018-11-03T16:00:52.669Z,73.00
2018-11-03T16:05:56.220Z,73.30
2018-11-03T16:10:59.738Z,73.70
2018-11-03T16:16:03.312Z,74.10
2018-11-03T16:21:06.799Z,74.20
2018-11-03T16:26:10.318Z,74.50
2018-11-03T16:31:13.811Z,74.70
2018-11-03T16:36:17.245Z,75.20
2018-11-03T16:41:20.901Z,75.50
2018-11-03T16:46:24.354Z,75.80
2018-11-03T16:51:27.825Z,76.40
2018-11-03T16:56:31.482Z,77.20
2018-11-03T17:01:34.955Z,77.30
2018-11-03T17:06:38.705Z,77.50
2018-11-03T17:11:42.145Z,78.50
2018-11-03T17:16:45.694Z,78.80
2018-11-03T17:21:49.141Z,79.00
2018-11-03T17:26:52.747Z,79.40
2018-11-03T17:31:56.299Z,80.20
2018-11-03T17:37:00.114Z,80.50
2018-11-03T17:42:03.612Z,80.10
2018-11-03T17:47:07.856Z,80.10
2018-11-03T17:52:11.514Z,80.00
2018-11-03T17:57:15.114Z,79.70
2018-11-03T18:02:18.602Z,80.20
2018-11-03T18:07:22.335Z,80.10
2018-11-03T18:12:25.884Z,80.30
2018-11-03T18:17:29.560Z,80.40
2018-11-03T18:22:33.307Z,80.20
2018-11-03T18:27:37.477Z,80.60
2018-11-03T18:32:42.351Z,81.00
2018-11-03T18:37:45.880Z,81.20
2018-11-03T18:42:49.501Z,81.40
2018-11-03T18:47:53.080Z,81.70
2018-11-03T18:52:56.678Z,82.20
2018-11-03T18:58:00.206Z,82.60
2018-11-03T19:03:03.772Z,82.70
2018-11-03T19:08:07.580Z,82.80
2018-11-03T19:13:11.186Z,83.20
2018-11-03T19:18:14.674Z,83.50
2018-11-03T19:23:18.170Z,83.20
2018-11-03T19:28:21.739Z,83.20
2018-11-03T19:33:25.202Z,84.80
2018-11-03T19:38:28.684Z,85.20
2018-11-03T19:43:32.310Z,85.20
2018-11-03T19:48:35.944Z,85.90
2018-11-03T19:53:39.521Z,85.90
2018-11-03T19:58:43.459Z,85.90
2018-11-03T20:03:46.981Z,85.80
2018-11-03T20:08:50.497Z,86.10
2018-11-03T20:13:54.196Z,87.00
2018-11-03T20:18:57.849Z,87.90
2018-11-03T20:24:01.325Z,87.60
2018-11-03T20:29:04.908Z,87.60
2018-11-03T20:34:08.417Z,87.50
2018-11-03T20:39:11.855Z,87.60
2018-11-03T20:44:15.364Z,87.90
2018-11-03T20:49:18.916Z,87.60
2018-11-03T20:54:22.501Z,87.80
2018-11-03T20:59:26.050Z,87.60
2018-11-03T21:04:29.570Z,87.60
2018-11-03T21:09:33.122Z,87.50
2018-11-03T21:14:36.577Z,87.30
2018-11-03T21:19:40.042Z,87.50
2018-11-03T21:24:43.644Z,87.40
2018-11-03T21:29:47.315Z,87.60
2018-11-03T21:34:50.755Z,87.10
2018-11-03T21:39:55.099Z,87.30
2018-11-03T21:44:58.696Z,87.00
2018-11-03T21:50:02.302Z,86.90
2018-11-03T21:55:06.641Z,87.00
2018-11-03T22:00:11.597Z,87.10
2018-11-03T22:05:15.265Z,86.60
2018-11-03T22:10:19.311Z,86.30
2018-11-03T22:15:23.127Z,86.80
2018-11-03T22:20:26.592Z,87.10
2018-11-03T22:25:30.133Z,87.20
2018-11-03T22:30:33.769Z,87.50
2018-11-03T22:35:37.582Z,87.50
2018-11-03T22:40:41.080Z,87.90
2018-11-03T22:45:44.611Z,87.90
2018-11-03T22:50:48.067Z,87.90
2018-11-03T22:55:51.642Z,88.00
2018-11-03T23:00:56.100Z,88.30
2018-11-03T23:05:59.813Z,88.90
2018-11-03T23:11:03.407Z,88.80
2018-11-03T23:16:07.834Z,88.60
2018-11-03T23:21:11.411Z,88.70
2018-11-03T23:26:15.128Z,90.80
2018-11-03T23:31:18.703Z,90.70
2018-11-03T23:36:22.299Z,88.10
2018-11-03T23:41:25.888Z,85.10
2018-11-03T23:46:29.600Z,83.40
2018-11-03T23:51:34.430Z,84.00
2018-11-03T23:56:38.080Z,85.40
